»·PEaware :: N416JK KSBA-KPSP

N416JK :: KSBA-KPSP

FLIGHT INFORMATION

Flight Status: Arrived
Operator: Privately registered:
United States
More flights under this callsign
Pilot: John K. (4202)
Aircraft: CESSNA 206 STATIONAIR
(C206)
More flights by this aircraft type
Origin: KSBA Santa Barbara Mun
United States
Destination: KPSP Palm Springs Intl
United States
More flights between these airports :: More routes between these airports
Route: +KWNAG FIM V186 ITSME V264 POM V197 PDZ V186 NIKKL V64 TRM PSP
File this flight plan on PilotEdge
Remarks:
Altitude:
(Current/Filed)
11,000ft
Speed:
(Current/Filed)
140kts
Departed: 08-Jan-18 08:47 AM
Arrived: 08-Jan-18 10:12 AM
Distance/Time
Traveled:
169nm/1:25
Distance/Time
To Go:
Arrived

Flight Plot

Page will automatically refresh every two minutes.

Flight plan parsing failed; only flown route is shown


Map Options




Map Legend


Flown Route
Filed Route
Departure Airport
Arrival Airport
Navaid (VOR, NDB)
Fix

Horizontal Profiles

Position Reports

Time Latitude Longitude Heading Altitude Ground
Speed
08-Jan-18 08:45 34.432436 -119.835544 70 17ft 0kts
08-Jan-18 08:46 34.432436 -119.835544 70 17ft 0kts
08-Jan-18 08:47 34.432436 -119.835544 70 17ft 0kts
08-Jan-18 08:48 34.432436 -119.835544 70 17ft 0kts
08-Jan-18 08:49 34.432436 -119.835544 70 17ft 0kts
08-Jan-18 08:50 34.432062 -119.835621 213 17ft 13kts
08-Jan-18 08:51 34.430817 -119.839493 245 17ft 0kts
08-Jan-18 08:52 34.430733 -119.839714 245 17ft 14kts
08-Jan-18 08:53 34.419145 -119.836456 163 175ft 108kts
08-Jan-18 08:54 34.385500 -119.824468 163 906ft 132kts
08-Jan-18 08:55 34.350662 -119.812074 163 1696ft 133kts
08-Jan-18 08:56 34.315688 -119.799655 163 2483ft 134kts
08-Jan-18 08:57 34.292957 -119.772179 87 3271ft 134kts
08-Jan-18 08:58 34.296244 -119.726949 87 4067ft 137kts
08-Jan-18 08:59 34.298473 -119.681301 81 4853ft 139kts
08-Jan-18 09:00 34.302008 -119.635066 80 5636ft 142kts
08-Jan-18 09:01 34.305643 -119.587089 80 6428ft 145kts
08-Jan-18 09:02 34.309419 -119.537133 81 6944ft 163kts
08-Jan-18 09:03 34.313296 -119.484113 81 6944ft 158kts
08-Jan-18 09:04 34.317200 -119.433822 88 6946ft 139kts
08-Jan-18 09:05 34.320369 -119.389218 88 6970ft 129kts
08-Jan-18 09:06 34.322827 -119.355300 88 6982ft 130kts
08-Jan-18 09:07 34.325965 -119.312178 88 6981ft 130kts
08-Jan-18 09:08 34.329187 -119.267780 88 6982ft 136kts
08-Jan-18 09:09 34.332415 -119.223136 89 6983ft 136kts
08-Jan-18 09:10 34.335669 -119.177908 89 6985ft 137kts
08-Jan-18 09:11 34.338881 -119.133041 89 6986ft 137kts
08-Jan-18 09:12 34.342161 -119.086973 89 6988ft 137kts
08-Jan-18 09:13 34.345374 -119.041612 89 6990ft 137kts
08-Jan-18 09:14 34.348586 -118.995946 89 6990ft 137kts
08-Jan-18 09:15 34.351767 -118.950532 89 6990ft 137kts
08-Jan-18 09:16 34.354982 -118.904392 89 6982ft 138kts
08-Jan-18 09:17 34.349671 -118.861330 113 6974ft 133kts
08-Jan-18 09:18 34.336190 -118.820864 114 6974ft 133kts
08-Jan-18 09:19 34.322086 -118.779319 114 6975ft 133kts
08-Jan-18 09:20 34.308135 -118.738438 113 6978ft 133kts
08-Jan-18 09:21 34.294083 -118.697329 112 6981ft 134kts
08-Jan-18 09:22 34.279955 -118.656047 112 6984ft 136kts
08-Jan-18 09:23 34.264641 -118.611278 113 6987ft 157kts
08-Jan-18 09:24 34.247767 -118.562144 113 6989ft 161kts
08-Jan-18 09:25 34.230769 -118.512759 113 6988ft 162kts
08-Jan-18 09:26 34.214525 -118.462054 110 6985ft 162kts
08-Jan-18 09:27 34.199162 -118.411353 111 6983ft 163kts
08-Jan-18 09:28 34.183965 -118.361304 111 6982ft 163kts
08-Jan-18 09:29 34.168498 -118.310462 111 6982ft 164kts
08-Jan-18 09:30 34.152735 -118.258781 111 6981ft 164kts
08-Jan-18 09:31 34.137154 -118.207744 111 6980ft 164kts
08-Jan-18 09:32 34.121622 -118.156951 111 6978ft 164kts
08-Jan-18 09:33 34.110191 -118.119715 110 6944ft 163kts
08-Jan-18 09:34 34.094754 -118.069317 110 6938ft 162kts
08-Jan-18 09:35 34.079349 -118.019166 110 6937ft 161kts
08-Jan-18 09:36 34.075547 -117.965946 86 6955ft 161kts
08-Jan-18 09:37 34.076390 -117.912902 87 6973ft 161kts
08-Jan-18 09:38 34.077332 -117.861591 87 6987ft 160kts
08-Jan-18 09:39 34.078179 -117.808950 87 6995ft 161kts
08-Jan-18 09:40 34.062133 -117.761076 128 6986ft 160kts
08-Jan-18 09:41 34.035667 -117.718152 128 6972ft 163kts
08-Jan-18 09:42 34.009842 -117.676501 129 7389ft 145kts
08-Jan-18 09:43 33.986947 -117.639620 132 8167ft 135kts
08-Jan-18 09:44 33.966376 -117.606585 134 8903ft 131kts
08-Jan-18 09:45 33.944765 -117.571984 135 9695ft 136kts
08-Jan-18 09:46 33.921495 -117.534792 136 10500ft 141kts
08-Jan-18 09:47 33.891389 -117.507390 153 10941ft 149kts
08-Jan-18 09:48 33.857261 -117.478719 153 10931ft 157kts
08-Jan-18 09:49 33.823233 -117.450169 153 10937ft 157kts
08-Jan-18 09:50 33.788301 -117.420929 153 10945ft 154kts
08-Jan-18 09:51 33.753351 -117.391709 153 10951ft 154kts
08-Jan-18 09:52 33.729780 -117.351995 105 10962ft 169kts
08-Jan-18 09:53 33.724738 -117.295483 103 10962ft 170kts
08-Jan-18 09:54 33.720196 -117.240018 103 10962ft 170kts
08-Jan-18 09:55 33.715669 -117.184427 103 10962ft 170kts
08-Jan-18 09:56 33.711030 -117.127726 103 10963ft 170kts
08-Jan-18 09:57 33.706460 -117.072216 102 10967ft 170kts
08-Jan-18 09:58 33.701970 -117.017516 102 10974ft 170kts
08-Jan-18 09:59 33.697279 -116.961027 101 10980ft 169kts
08-Jan-18 10:00 33.692674 -116.905878 101 10987ft 169kts
08-Jan-18 10:01 33.688232 -116.851459 101 10988ft 168kts
08-Jan-18 10:02 33.683627 -116.796831 101 10988ft 168kts
08-Jan-18 10:03 33.678872 -116.740837 101 10988ft 168kts
08-Jan-18 10:04 33.674211 -116.686230 101 10988ft 168kts
08-Jan-18 10:05 33.669539 -116.631778 101 10988ft 168kts
08-Jan-18 10:06 33.663320 -116.575950 106 10875ft 173kts
08-Jan-18 10:07 33.656147 -116.519696 102 9642ft 156kts
08-Jan-18 10:08 33.648952 -116.468984 102 8553ft 168kts
08-Jan-18 10:09 33.642543 -116.416496 98 7378ft 150kts
08-Jan-18 10:10 33.642706 -116.369938 68 6907ft 133kts
08-Jan-18 10:11 33.665976 -116.336479 36 6876ft 148kts
08-Jan-18 10:12 33.700464 -116.355784 306 5600ft 155kts
08-Jan-18 10:13 33.722424 -116.399839 307 4033ft 160kts
08-Jan-18 10:14 33.748079 -116.435228 319 2880ft 133kts
08-Jan-18 10:15 33.774414 -116.457566 321 1786ft 90kts
08-Jan-18 10:16 33.795385 -116.477288 322 1334ft 95kts
08-Jan-18 10:17 33.813569 -116.493318 322 699ft 73kts
08-Jan-18 10:18 33.826723 -116.504999 322 481ft 32kts
08-Jan-18 10:19 33.826069 -116.506899 207 481ft 23kts
08-Jan-18 10:20 33.826023 -116.509714 126 481ft 0kts

Navigation Log

Ident Type
Flight plan parsing failed, navigation log unavailable